Eversley, United Kingdom
Current Conditions -  °F | °C
As of 7:50 PM on Friday 24 Oct 2014 (Local Time) from EGLF Reporting Station
Rain Showers Rain Showers  
Wind Chill: 59°   Ceiling: Unl
Heat Index: 59°   Visibility: 6mi
Dew Point: 55°   Wind: 13mph
Humidity: 88%   Direction: 260°W
Pressure: 29.94"   Gusts: NA
Location:  51.35°N, 0.89°W
Report Text: EGLF 241850Z 26011KT 9999 VCSH SCT012 SCT029 15/13 Q1014 RESHRA
Loading
Personal Weather Stations






























Interactive Weather Map New forecast layout! Learn more

10-Day Weather Forecast

Advertisements
Track Severe Weather on mobile